sensor_id;sensor_type;location;lat;lon;timestamp;pressure;altitude;pressure_sealevel;temperature;humidity
58471;BME280;44258;51.288;12.068;2023-12-20T00:01:50;100130.47;;;8.29;73.69
58471;BME280;44258;51.288;12.068;2023-12-20T00:04:17;100131.38;;;8.28;73.29
58471;BME280;44258;51.288;12.068;2023-12-20T00:06:43;100127.13;;;7.87;75.72
58471;BME280;44258;51.288;12.068;2023-12-20T00:09:10;100117.69;;;7.79;76.20
58471;BME280;44258;51.288;12.068;2023-12-20T00:11:36;100119.81;;;7.91;75.83
58471;BME280;44258;51.288;12.068;2023-12-20T00:14:03;100117.06;;;7.92;75.93
58471;BME280;44258;51.288;12.068;2023-12-20T00:16:31;100114.28;;;7.94;75.63
58471;BME280;44258;51.288;12.068;2023-12-20T00:19:01;100108.31;;;7.89;75.84
58471;BME280;44258;51.288;12.068;2023-12-20T00:21:27;100115.09;;;7.96;75.41
58471;BME280;44258;51.288;12.068;2023-12-20T00:23:55;100108.13;;;8.11;74.68
58471;BME280;44258;51.288;12.068;2023-12-20T00:26:22;100116.00;;;8.14;74.39
58471;BME280;44258;51.288;12.068;2023-12-20T00:28:48;100107.66;;;8.20;74.38
58471;BME280;44258;51.288;12.068;2023-12-20T00:31:15;100100.22;;;8.08;74.90
58471;BME280;44258;51.288;12.068;2023-12-20T00:33:42;100104.97;;;8.20;74.63
58471;BME280;44258;51.288;12.068;2023-12-20T00:36:10;100106.97;;;8.34;74.28
58471;BME280;44258;51.288;12.068;2023-12-20T00:38:37;100100.91;;;8.48;73.39
58471;BME280;44258;51.288;12.068;2023-12-20T00:41:06;100096.06;;;8.02;75.01
58471;BME280;44258;51.288;12.068;2023-12-20T00:43:33;100104.34;;;8.15;74.76
58471;BME280;44258;51.288;12.068;2023-12-20T00:46:01;100103.31;;;8.18;74.33
58471;BME280;44258;51.288;12.068;2023-12-20T00:48:30;100101.44;;;8.20;74.53
58471;BME280;44258;51.288;12.068;2023-12-20T00:50:57;100095.72;;;7.91;75.76
58471;BME280;44258;51.288;12.068;2023-12-20T00:53:24;100093.78;;;8.12;75.17
58471;BME280;44258;51.288;12.068;2023-12-20T00:55:52;100100.88;;;8.30;74.04
58471;BME280;44258;51.288;12.068;2023-12-20T00:58:18;100089.97;;;8.35;73.72
58471;BME280;44258;51.288;12.068;2023-12-20T01:00:45;100095.53;;;8.30;74.14
58471;BME280;44258;51.288;12.068;2023-12-20T01:03:11;100087.28;;;8.35;73.43
58471;BME280;44258;51.288;12.068;2023-12-20T01:05:39;100092.63;;;8.35;73.63
58471;BME280;44258;51.288;12.068;2023-12-20T01:08:11;100090.19;;;8.48;73.22
58471;BME280;44258;51.288;12.068;2023-12-20T01:10:40;100091.75;;;8.52;72.78
58471;BME280;44258;51.288;12.068;2023-12-20T01:13:06;100086.66;;;8.47;72.74
58471;BME280;44258;51.288;12.068;2023-12-20T01:15:34;100082.91;;;8.32;73.35
58471;BME280;44258;51.288;12.068;2023-12-20T01:18:06;100082.59;;;8.39;73.04
58471;BME280;44258;51.288;12.068;2023-12-20T01:20:33;100073.41;;;8.44;72.89
58471;BME280;44258;51.288;12.068;2023-12-20T01:22:59;100075.34;;;8.41;73.25
58471;BME280;44258;51.288;12.068;2023-12-20T01:25:26;100072.06;;;8.36;73.34
58471;BME280;44258;51.288;12.068;2023-12-20T01:27:54;100069.84;;;8.44;72.99
58471;BME280;44258;51.288;12.068;2023-12-20T01:30:20;100061.56;;;8.48;72.54
58471;BME280;44258;51.288;12.068;2023-12-20T01:32:47;100067.09;;;8.45;72.67
58471;BME280;44258;51.288;12.068;2023-12-20T01:35:13;100065.22;;;8.47;72.76
58471;BME280;44258;51.288;12.068;2023-12-20T01:37:40;100055.44;;;8.29;73.10
58471;BME280;44258;51.288;12.068;2023-12-20T01:40:06;100054.88;;;8.40;73.07
58471;BME280;44258;51.288;12.068;2023-12-20T01:42:33;100053.94;;;8.41;72.84
58471;BME280;44258;51.288;12.068;2023-12-20T01:45:01;100054.47;;;8.30;73.33
58471;BME280;44258;51.288;12.068;2023-12-20T01:47:27;100051.34;;;8.39;73.19
58471;BME280;44258;51.288;12.068;2023-12-20T01:49:54;100045.56;;;8.47;72.64
58471;BME280;44258;51.288;12.068;2023-12-20T01:52:22;100041.25;;;8.44;72.47
58471;BME280;44258;51.288;12.068;2023-12-20T01:54:49;100051.72;;;8.49;72.21
58471;BME280;44258;51.288;12.068;2023-12-20T01:57:17;100050.00;;;8.48;72.05
58471;BME280;44258;51.288;12.068;2023-12-20T01:59:44;100049.66;;;8.37;72.83
58471;BME280;44258;51.288;12.068;2023-12-20T02:02:13;100055.66;;;8.24;73.49
58471;BME280;44258;51.288;12.068;2023-12-20T02:04:40;100052.97;;;8.24;73.75
58471;BME280;44258;51.288;12.068;2023-12-20T02:07:06;100028.56;;;8.13;74.07
58471;BME280;44258;51.288;12.068;2023-12-20T02:09:33;100039.84;;;8.02;74.40
58471;BME280;44258;51.288;12.068;2023-12-20T02:12:00;100028.41;;;8.16;74.18
58471;BME280;44258;51.288;12.068;2023-12-20T02:14:27;100028.81;;;8.26;73.39
58471;BME280;44258;51.288;12.068;2023-12-20T02:16:53;100025.88;;;8.30;72.97
58471;BME280;44258;51.288;12.068;2023-12-20T02:19:26;100023.84;;;8.01;74.52
58471;BME280;44258;51.288;12.068;2023-12-20T02:22:05;100015.75;;;8.02;74.08
58471;BME280;44258;51.288;12.068;2023-12-20T02:24:32;100018.78;;;8.12;73.87
58471;BME280;44258;51.288;12.068;2023-12-20T02:27:02;100012.28;;;8.00;74.23
58471;BME280;44258;51.288;12.068;2023-12-20T02:29:29;100018.66;;;8.15;73.71
58471;BME280;44258;51.288;12.068;2023-12-20T02:31:57;100019.84;;;8.27;73.20
58471;BME280;44258;51.288;12.068;2023-12-20T02:34:25;100020.75;;;8.26;73.17
58471;BME280;44258;51.288;12.068;2023-12-20T02:36:52;100019.91;;;8.25;73.29
58471;BME280;44258;51.288;12.068;2023-12-20T02:39:20;100029.59;;;8.28;73.18
58471;BME280;44258;51.288;12.068;2023-12-20T02:41:47;100028.47;;;8.32;73.03
58471;BME280;44258;51.288;12.068;2023-12-20T02:44:14;100031.81;;;8.37;72.64
58471;BME280;44258;51.288;12.068;2023-12-20T02:46:41;100027.31;;;8.38;72.66
58471;BME280;44258;51.288;12.068;2023-12-20T02:49:07;100027.91;;;8.43;72.29
58471;BME280;44258;51.288;12.068;2023-12-20T02:51:36;100019.81;;;8.44;72.47
58471;BME280;44258;51.288;12.068;2023-12-20T02:54:07;100010.28;;;8.39;72.65
58471;BME280;44258;51.288;12.068;2023-12-20T02:56:38;100000.00;;;8.47;72.57
58471;BME280;44258;51.288;12.068;2023-12-20T02:59:05;100000.56;;;8.53;72.05
58471;BME280;44258;51.288;12.068;2023-12-20T03:01:33;99994.50;;;8.50;72.28
58471;BME280;44258;51.288;12.068;2023-12-20T03:04:02;99991.19;;;8.45;72.44
58471;BME280;44258;51.288;12.068;2023-12-20T03:06:29;99991.97;;;8.47;72.61
58471;BME280;44258;51.288;12.068;2023-12-20T03:08:56;99991.44;;;8.58;72.06
58471;BME280;44258;51.288;12.068;2023-12-20T03:11:26;99988.56;;;8.61;71.98
58471;BME280;44258;51.288;12.068;2023-12-20T03:13:54;99998.19;;;8.65;72.07
58471;BME280;44258;51.288;12.068;2023-12-20T03:16:20;100010.25;;;8.56;72.22
58471;BME280;44258;51.288;12.068;2023-12-20T03:18:47;100005.38;;;8.47;72.48
58471;BME280;44258;51.288;12.068;2023-12-20T03:21:16;99995.69;;;8.44;72.26
58471;BME280;44258;51.288;12.068;2023-12-20T03:23:42;99992.72;;;8.33;72.75
58471;BME280;44258;51.288;12.068;2023-12-20T03:26:10;99987.91;;;8.22;73.68
58471;BME280;44258;51.288;12.068;2023-12-20T03:28:37;99997.16;;;8.17;73.93
58471;BME280;44258;51.288;12.068;2023-12-20T03:31:05;99989.81;;;8.20;73.74
58471;BME280;44258;51.288;12.068;2023-12-20T03:33:32;99989.00;;;8.18;73.96
58471;BME280;44258;51.288;12.068;2023-12-20T03:35:59;99998.00;;;8.17;73.88
58471;BME280;44258;51.288;12.068;2023-12-20T03:38:25;100013.28;;;8.15;74.37
58471;BME280;44258;51.288;12.068;2023-12-20T03:40:52;100007.59;;;8.04;75.23
58471;BME280;44258;51.288;12.068;2023-12-20T03:43:18;100000.75;;;7.98;75.40
58471;BME280;44258;51.288;12.068;2023-12-20T03:45:46;99994.84;;;8.09;74.68
58471;BME280;44258;51.288;12.068;2023-12-20T03:48:16;99998.72;;;8.21;74.34
58471;BME280;44258;51.288;12.068;2023-12-20T03:50:42;100003.75;;;8.09;75.03
58471;BME280;44258;51.288;12.068;2023-12-20T03:53:09;100002.25;;;8.21;74.50
58471;BME280;44258;51.288;12.068;2023-12-20T03:55:35;100014.69;;;8.22;74.42
58471;BME280;44258;51.288;12.068;2023-12-20T03:58:01;100011.16;;;8.22;74.34
58471;BME280;44258;51.288;12.068;2023-12-20T04:00:28;100010.91;;;8.26;74.17
58471;BME280;44258;51.288;12.068;2023-12-20T04:02:54;100009.44;;;8.21;74.67
58471;BME280;44258;51.288;12.068;2023-12-20T04:05:22;100017.94;;;8.29;74.29
58471;BME280;44258;51.288;12.068;2023-12-20T04:07:51;100013.75;;;8.06;75.14
58471;BME280;44258;51.288;12.068;2023-12-20T04:10:17;100007.47;;;8.07;75.40
58471;BME280;44258;51.288;12.068;2023-12-20T04:12:44;100002.41;;;8.18;75.16
58471;BME280;44258;51.288;12.068;2023-12-20T04:15:10;99999.91;;;8.15;74.72
58471;BME280;44258;51.288;12.068;2023-12-20T04:17:37;100017.00;;;8.12;75.25
58471;BME280;44258;51.288;12.068;2023-12-20T04:20:04;100026.53;;;8.01;76.09
58471;BME280;44258;51.288;12.068;2023-12-20T04:22:32;100010.75;;;7.94;75.97
58471;BME280;44258;51.288;12.068;2023-12-20T04:24:58;100015.84;;;7.82;76.84
58471;BME280;44258;51.288;12.068;2023-12-20T04:27:25;100006.66;;;7.87;76.70
58471;BME280;44258;51.288;12.068;2023-12-20T04:29:52;100019.97;;;7.89;76.54
58471;BME280;44258;51.288;12.068;2023-12-20T04:32:18;100012.56;;;7.94;76.15
58471;BME280;44258;51.288;12.068;2023-12-20T04:34:44;100008.69;;;8.00;75.92
58471;BME280;44258;51.288;12.068;2023-12-20T04:37:11;100005.41;;;8.12;75.90
58471;BME280;44258;51.288;12.068;2023-12-20T04:39:39;100012.09;;;8.03;76.08
58471;BME280;44258;51.288;12.068;2023-12-20T04:42:06;100015.25;;;8.11;75.68
58471;BME280;44258;51.288;12.068;2023-12-20T04:44:33;100023.84;;;8.01;76.02
58471;BME280;44258;51.288;12.068;2023-12-20T04:47:01;100018.88;;;8.10;75.85
58471;BME280;44258;51.288;12.068;2023-12-20T04:49:30;100010.84;;;8.10;75.60
58471;BME280;44258;51.288;12.068;2023-12-20T04:51:57;100004.13;;;8.02;75.91
58471;BME280;44258;51.288;12.068;2023-12-20T04:54:26;100006.28;;;7.95;76.69
58471;BME280;44258;51.288;12.068;2023-12-20T04:56:54;100007.28;;;7.92;76.63
58471;BME280;44258;51.288;12.068;2023-12-20T04:59:20;100004.44;;;7.96;76.40
58471;BME280;44258;51.288;12.068;2023-12-20T05:01:47;100006.41;;;7.92;76.61
58471;BME280;44258;51.288;12.068;2023-12-20T05:04:13;100019.47;;;7.81;77.34
58471;BME280;44258;51.288;12.068;2023-12-20T05:06:40;100020.47;;;7.78;77.75
58471;BME280;44258;51.288;12.068;2023-12-20T05:09:07;100027.44;;;7.82;77.63
58471;BME280;44258;51.288;12.068;2023-12-20T05:11:37;100013.97;;;7.65;78.72
58471;BME280;44258;51.288;12.068;2023-12-20T05:14:06;100018.38;;;7.85;77.75
58471;BME280;44258;51.288;12.068;2023-12-20T05:16:33;100017.34;;;7.87;77.18
58471;BME280;44258;51.288;12.068;2023-12-20T05:19:01;100020.19;;;7.84;77.31
58471;BME280;44258;51.288;12.068;2023-12-20T05:21:32;100022.78;;;7.86;76.96
58471;BME280;44258;51.288;12.068;2023-12-20T05:23:59;100019.34;;;8.01;76.14
58471;BME280;44258;51.288;12.068;2023-12-20T05:26:26;100019.97;;;7.89;76.68
58471;BME280;44258;51.288;12.068;2023-12-20T05:28:54;100028.38;;;7.81;76.69
58471;BME280;44258;51.288;12.068;2023-12-20T05:31:22;100030.44;;;7.93;75.97
58471;BME280;44258;51.288;12.068;2023-12-20T05:33:48;100034.75;;;7.96;75.62
58471;BME280;44258;51.288;12.068;2023-12-20T05:36:15;100026.44;;;8.02;75.08
58471;BME280;44258;51.288;12.068;2023-12-20T05:38:41;100029.19;;;8.01;74.67
58471;BME280;44258;51.288;12.068;2023-12-20T05:41:08;100039.19;;;7.97;74.68
58471;BME280;44258;51.288;12.068;2023-12-20T05:43:36;100046.56;;;7.92;74.68
58471;BME280;44258;51.288;12.068;2023-12-20T05:46:03;100055.50;;;7.92;74.68
58471;BME280;44258;51.288;12.068;2023-12-20T05:48:31;100057.69;;;7.84;74.41
58471;BME280;44258;51.288;12.068;2023-12-20T05:50:57;100061.28;;;7.83;74.52
58471;BME280;44258;51.288;12.068;2023-12-20T05:53:24;100068.84;;;7.73;74.47
58471;BME280;44258;51.288;12.068;2023-12-20T05:55:50;100071.13;;;7.83;74.35
58471;BME280;44258;51.288;12.068;2023-12-20T05:58:16;100069.47;;;7.80;74.28
58471;BME280;44258;51.288;12.068;2023-12-20T06:00:43;100068.28;;;7.86;73.89
58471;BME280;44258;51.288;12.068;2023-12-20T06:03:13;100063.88;;;7.85;73.38
58471;BME280;44258;51.288;12.068;2023-12-20T06:05:43;100059.47;;;7.84;73.32
58471;BME280;44258;51.288;12.068;2023-12-20T06:08:12;100061.13;;;7.67;74.30
58471;BME280;44258;51.288;12.068;2023-12-20T06:10:44;100073.16;;;7.59;74.33
58471;BME280;44258;51.288;12.068;2023-12-20T06:13:11;100075.53;;;7.65;74.06
58471;BME280;44258;51.288;12.068;2023-12-20T06:15:38;100073.22;;;7.57;74.22
58471;BME280;44258;51.288;12.068;2023-12-20T06:18:05;100080.03;;;7.45;74.24
58471;BME280;44258;51.288;12.068;2023-12-20T06:20:31;100083.25;;;7.33;74.64
58471;BME280;44258;51.288;12.068;2023-12-20T06:23:00;100080.03;;;7.45;74.51
58471;BME280;44258;51.288;12.068;2023-12-20T06:25:26;100087.28;;;7.43;74.40
58471;BME280;44258;51.288;12.068;2023-12-20T06:27:53;100090.06;;;7.40;75.15
58471;BME280;44258;51.288;12.068;2023-12-20T06:30:19;100090.06;;;7.40;75.76
58471;BME280;44258;51.288;12.068;2023-12-20T06:32:47;100085.72;;;7.57;74.67
58471;BME280;44258;51.288;12.068;2023-12-20T06:35:13;100082.94;;;7.60;74.28
58471;BME280;44258;51.288;12.068;2023-12-20T06:37:40;100081.41;;;7.35;75.34
58471;BME280;44258;51.288;12.068;2023-12-20T06:40:09;100080.59;;;7.33;74.86
58471;BME280;44258;51.288;12.068;2023-12-20T06:42:35;100062.50;;;7.00;76.02
58471;BME280;44258;51.288;12.068;2023-12-20T06:45:03;100072.09;;;7.04;74.15
58471;BME280;44258;51.288;12.068;2023-12-20T06:47:29;100073.75;;;7.27;73.43
58471;BME280;44258;51.288;12.068;2023-12-20T06:49:59;100069.34;;;7.45;73.30
58471;BME280;44258;51.288;12.068;2023-12-20T06:52:29;100065.41;;;7.52;71.96
58471;BME280;44258;51.288;12.068;2023-12-20T06:54:58;100077.03;;;7.70;71.75
58471;BME280;44258;51.288;12.068;2023-12-20T06:57:26;100078.41;;;7.79;71.04
58471;BME280;44258;51.288;12.068;2023-12-20T06:59:52;100071.63;;;7.72;70.28
58471;BME280;44258;51.288;12.068;2023-12-20T07:02:19;100073.00;;;7.81;70.36
58471;BME280;44258;51.288;12.068;2023-12-20T07:04:47;100072.53;;;7.90;70.15
58471;BME280;44258;51.288;12.068;2023-12-20T07:07:14;100061.63;;;7.94;69.56
58471;BME280;44258;51.288;12.068;2023-12-20T07:09:40;100056.34;;;7.93;69.01
58471;BME280;44258;51.288;12.068;2023-12-20T07:12:08;100069.03;;;7.70;68.95
58471;BME280;44258;51.288;12.068;2023-12-20T07:14:36;100070.41;;;7.60;69.75
58471;BME280;44258;51.288;12.068;2023-12-20T07:17:03;100079.44;;;7.77;69.52
58471;BME280;44258;51.288;12.068;2023-12-20T07:19:33;100081.78;;;7.84;69.21
58471;BME280;44258;51.288;12.068;2023-12-20T07:21:59;100087.97;;;7.85;69.01
58471;BME280;44258;51.288;12.068;2023-12-20T07:24:26;100095.34;;;7.80;68.73
58471;BME280;44258;51.288;12.068;2023-12-20T07:26:52;100087.97;;;7.85;68.81
58471;BME280;44258;51.288;12.068;2023-12-20T07:29:19;100079.72;;;7.89;68.96
58471;BME280;44258;51.288;12.068;2023-12-20T07:31:47;100081.59;;;7.87;68.78
58471;BME280;44258;51.288;12.068;2023-12-20T07:34:14;100095.66;;;7.92;68.27
58471;BME280;44258;51.288;12.068;2023-12-20T07:36:40;100095.84;;;7.88;68.33
58471;BME280;44258;51.288;12.068;2023-12-20T07:39:07;100097.91;;;7.83;68.63
58471;BME280;44258;51.288;12.068;2023-12-20T07:41:33;100100.56;;;7.64;69.03
58471;BME280;44258;51.288;12.068;2023-12-20T07:44:03;100099.78;;;7.62;68.92
58471;BME280;44258;51.288;12.068;2023-12-20T07:46:32;100090.28;;;7.54;68.97
58471;BME280;44258;51.288;12.068;2023-12-20T07:49:00;100102.28;;;7.65;69.11
58471;BME280;44258;51.288;12.068;2023-12-20T07:51:26;100086.00;;;7.69;68.67
58471;BME280;44258;51.288;12.068;2023-12-20T07:53:53;100096.28;;;7.79;68.34
58471;BME280;44258;51.288;12.068;2023-12-20T07:56:19;100097.53;;;7.90;68.02
58471;BME280;44258;51.288;12.068;2023-12-20T07:58:46;100088.47;;;7.93;67.63
58471;BME280;44258;51.288;12.068;2023-12-20T08:01:15;100097.06;;;8.00;67.46
58471;BME280;44258;51.288;12.068;2023-12-20T08:03:42;100096.13;;;8.01;66.77
58471;BME280;44258;51.288;12.068;2023-12-20T08:06:11;100085.94;;;7.90;67.18
58471;BME280;44258;51.288;12.068;2023-12-20T08:08:38;100097.09;;;7.81;67.58
58471;BME280;44258;51.288;12.068;2023-12-20T08:11:04;100095.22;;;7.83;67.63
58471;BME280;44258;51.288;12.068;2023-12-20T08:13:31;100095.72;;;7.91;67.32
58471;BME280;44258;51.288;12.068;2023-12-20T08:15:57;100100.09;;;7.92;67.30
58471;BME280;44258;51.288;12.068;2023-12-20T08:18:24;100099.13;;;7.94;67.34
58471;BME280;44258;51.288;12.068;2023-12-20T08:20:50;100099.91;;;7.97;67.40
58471;BME280;44258;51.288;12.068;2023-12-20T08:23:19;100098.16;;;7.96;67.27
58471;BME280;44258;51.288;12.068;2023-12-20T08:25:49;100096.13;;;8.01;67.42
58471;BME280;44258;51.288;12.068;2023-12-20T08:28:17;100108.66;;;8.00;67.96
58471;BME280;44258;51.288;12.068;2023-12-20T08:30:44;100121.41;;;7.95;67.85
58471;BME280;44258;51.288;12.068;2023-12-20T08:33:10;100107.16;;;7.94;67.95
58471;BME280;44258;51.288;12.068;2023-12-20T08:35:38;100103.44;;;7.97;67.84
58471;BME280;44258;51.288;12.068;2023-12-20T08:38:04;100097.72;;;7.86;68.38
58471;BME280;44258;51.288;12.068;2023-12-20T08:40:32;100095.72;;;7.72;69.08
58471;BME280;44258;51.288;12.068;2023-12-20T08:42:59;100100.06;;;7.56;69.38
58471;BME280;44258;51.288;12.068;2023-12-20T08:45:26;100087.03;;;7.67;69.38
58471;BME280;44258;51.288;12.068;2023-12-20T08:47:52;100095.22;;;7.83;68.44
58471;BME280;44258;51.288;12.068;2023-12-20T08:50:19;100095.00;;;7.87;68.30
58471;BME280;44258;51.288;12.068;2023-12-20T08:52:47;100097.66;;;7.87;68.14
58471;BME280;44258;51.288;12.068;2023-12-20T08:55:14;100092.50;;;8.02;67.61
58471;BME280;44258;51.288;12.068;2023-12-20T08:57:47;100104.97;;;7.84;67.60
58471;BME280;44258;51.288;12.068;2023-12-20T09:00:14;100097.59;;;7.89;67.83
58471;BME280;44258;51.288;12.068;2023-12-20T09:02:41;100097.06;;;8.00;67.66
58471;BME280;44258;51.288;12.068;2023-12-20T09:05:08;100104.03;;;8.21;67.15
58471;BME280;44258;51.288;12.068;2023-12-20T09:07:34;100101.94;;;7.91;68.00
58471;BME280;44258;51.288;12.068;2023-12-20T09:10:01;100110.03;;;8.26;67.43
58471;BME280;44258;51.288;12.068;2023-12-20T09:12:27;100097.59;;;8.25;67.36
58471;BME280;44258;51.288;12.068;2023-12-20T09:14:55;100100.56;;;8.37;67.14
58471;BME280;44258;51.288;12.068;2023-12-20T09:17:22;100093.72;;;8.13;66.51
58471;BME280;44258;51.288;12.068;2023-12-20T09:19:48;100088.69;;;8.25;67.17
58471;BME280;44258;51.288;12.068;2023-12-20T09:22:17;100087.13;;;8.21;67.49
58471;BME280;44258;51.288;12.068;2023-12-20T09:24:48;100075.38;;;8.23;67.03
58471;BME280;44258;51.288;12.068;2023-12-20T09:27:14;100075.66;;;8.34;66.80
58471;BME280;44258;51.288;12.068;2023-12-20T09:29:41;100074.56;;;8.39;65.97
58471;BME280;44258;51.288;12.068;2023-12-20T09:32:09;100072.03;;;8.18;66.34
58471;BME280;44258;51.288;12.068;2023-12-20T09:34:36;100071.00;;;8.03;66.14
58471;BME280;44258;51.288;12.068;2023-12-20T09:37:02;100075.88;;;7.95;67.51
58471;BME280;44258;51.288;12.068;2023-12-20T09:39:29;100072.75;;;8.04;67.22
58471;BME280;44258;51.288;12.068;2023-12-20T09:42:00;100068.97;;;8.26;66.40
58471;BME280;44258;51.288;12.068;2023-12-20T09:44:27;100059.75;;;8.14;66.70
58471;BME280;44258;51.288;12.068;2023-12-20T09:46:54;100060.16;;;8.24;66.22
58471;BME280;44258;51.288;12.068;2023-12-20T09:49:22;100062.28;;;8.17;66.30
58471;BME280;44258;51.288;12.068;2023-12-20T09:51:50;100044.47;;;8.16;66.51
58471;BME280;44258;51.288;12.068;2023-12-20T09:54:17;100044.72;;;8.11;66.23
58471;BME280;44258;51.288;12.068;2023-12-20T09:56:43;100050.00;;;8.30;66.05
58471;BME280;44258;51.288;12.068;2023-12-20T09:59:10;100052.44;;;8.18;66.16
58471;BME280;44258;51.288;12.068;2023-12-20T10:01:37;100052.66;;;8.30;66.12
58471;BME280;44258;51.288;12.068;2023-12-20T10:04:05;100061.91;;;8.25;66.19
58471;BME280;44258;51.288;12.068;2023-12-20T10:06:35;100037.16;;;8.02;65.50
58471;BME280;44258;51.288;12.068;2023-12-20T10:09:02;100058.31;;;7.89;66.66
58471;BME280;44258;51.288;12.068;2023-12-20T10:11:29;100055.66;;;8.07;66.60
58471;BME280;44258;51.288;12.068;2023-12-20T10:13:58;100044.94;;;8.07;66.40
58471;BME280;44258;51.288;12.068;2023-12-20T10:16:25;100052.13;;;8.41;65.57
58471;BME280;44258;51.288;12.068;2023-12-20T10:18:52;100042.09;;;8.45;65.01
58471;BME280;44258;51.288;12.068;2023-12-20T10:21:19;100035.75;;;8.47;64.20
58471;BME280;44258;51.288;12.068;2023-12-20T10:23:46;100024.78;;;8.34;64.99
58471;BME280;44258;51.288;12.068;2023-12-20T10:26:19;100046.34;;;8.49;63.74
58471;BME280;44258;51.288;12.068;2023-12-20T10:28:49;100045.28;;;8.36;65.05
58471;BME280;44258;51.288;12.068;2023-12-20T10:31:25;100030.13;;;8.52;63.95
58471;BME280;44258;51.288;12.068;2023-12-20T10:33:52;100023.53;;;8.75;63.27
58471;BME280;44258;51.288;12.068;2023-12-20T10:36:18;100027.44;;;8.34;64.46
58471;BME280;44258;51.288;12.068;2023-12-20T10:38:47;100011.03;;;8.58;63.96
58471;BME280;44258;51.288;12.068;2023-12-20T10:41:16;100012.53;;;8.64;64.01
58471;BME280;44258;51.288;12.068;2023-12-20T10:43:44;100008.28;;;8.93;64.10
58471;BME280;44258;51.288;12.068;2023-12-20T10:46:13;99992.09;;;8.61;63.37
58471;BME280;44258;51.288;12.068;2023-12-20T10:48:39;99982.75;;;8.86;62.97
58471;BME280;44258;51.288;12.068;2023-12-20T10:51:07;99985.56;;;9.00;62.50
58471;BME280;44258;51.288;12.068;2023-12-20T10:53:34;99988.50;;;9.11;62.65
58471;BME280;44258;51.288;12.068;2023-12-20T10:56:04;99979.16;;;9.03;62.53
58471;BME280;44258;51.288;12.068;2023-12-20T10:58:32;99986.88;;;9.25;62.07
58471;BME280;44258;51.288;12.068;2023-12-20T11:00:59;99987.66;;;9.27;61.24
58471;BME280;44258;51.288;12.068;2023-12-20T11:03:27;99983.91;;;9.13;62.23
58471;BME280;44258;51.288;12.068;2023-12-20T11:05:56;99982.31;;;8.78;62.51
58471;BME280;44258;51.288;12.068;2023-12-20T11:08:27;99985.09;;;8.92;62.53
58471;BME280;44258;51.288;12.068;2023-12-20T11:10:58;99985.53;;;9.16;61.65
58471;BME280;44258;51.288;12.068;2023-12-20T11:13:28;99987.00;;;9.06;62.15
58471;BME280;44258;51.288;12.068;2023-12-20T11:15:56;99978.81;;;9.09;62.42
58471;BME280;44258;51.288;12.068;2023-12-20T11:18:28;99974.22;;;9.11;62.09
58471;BME280;44258;51.288;12.068;2023-12-20T11:21:00;99973.34;;;8.94;62.39
58471;BME280;44258;51.288;12.068;2023-12-20T11:23:27;99960.34;;;8.87;62.34
58471;BME280;44258;51.288;12.068;2023-12-20T11:25:56;99957.41;;;8.91;62.66
58471;BME280;44258;51.288;12.068;2023-12-20T11:28:24;99950.31;;;8.74;61.90
58471;BME280;44258;51.288;12.068;2023-12-20T11:31:01;99950.59;;;9.02;61.96
58471;BME280;44258;51.288;12.068;2023-12-20T11:33:31;99951.34;;;9.04;62.03
58471;BME280;44258;51.288;12.068;2023-12-20T11:35:58;99946.09;;;9.02;62.39
58471;BME280;44258;51.288;12.068;2023-12-20T11:38:26;99947.38;;;8.95;61.98
58471;BME280;44258;51.288;12.068;2023-12-20T11:40:53;99936.56;;;8.97;62.04
58471;BME280;44258;51.288;12.068;2023-12-20T11:43:32;99945.13;;;9.03;62.00
58471;BME280;44258;51.288;12.068;2023-12-20T11:46:03;99926.97;;;8.92;61.83
58471;BME280;44258;51.288;12.068;2023-12-20T11:48:31;99926.38;;;9.03;62.09
58471;BME280;44258;51.288;12.068;2023-12-20T11:50:58;99925.25;;;9.07;61.80
58471;BME280;44258;51.288;12.068;2023-12-20T11:53:26;99910.81;;;8.94;61.97
58471;BME280;44258;51.288;12.068;2023-12-20T11:55:53;99893.25;;;8.88;61.67
58471;BME280;44258;51.288;12.068;2023-12-20T11:58:20;99892.34;;;9.20;61.22
58471;BME280;44258;51.288;12.068;2023-12-20T12:00:48;99881.44;;;8.59;62.05
58471;BME280;44258;51.288;12.068;2023-12-20T12:03:15;99880.78;;;8.56;62.15
58471;BME280;44258;51.288;12.068;2023-12-20T12:05:42;99881.56;;;8.73;62.16
58471;BME280;44258;51.288;12.068;2023-12-20T12:08:09;99876.09;;;8.91;62.06
58471;BME280;44258;51.288;12.068;2023-12-20T12:10:36;99879.28;;;8.98;62.15
58471;BME280;44258;51.288;12.068;2023-12-20T12:13:02;99874.91;;;9.12;61.39
58471;BME280;44258;51.288;12.068;2023-12-20T12:15:30;99875.25;;;9.06;61.56
58471;BME280;44258;51.288;12.068;2023-12-20T12:18:07;99854.66;;;8.75;61.64
58471;BME280;44258;51.288;12.068;2023-12-20T12:20:34;99864.34;;;8.62;62.04
58471;BME280;44258;51.288;12.068;2023-12-20T12:23:02;99856.25;;;8.30;62.79
58471;BME280;44258;51.288;12.068;2023-12-20T12:25:29;99843.66;;;8.48;62.18
58471;BME280;44258;51.288;12.068;2023-12-20T12:27:56;99848.41;;;8.43;62.82
58471;BME280;44258;51.288;12.068;2023-12-20T12:30:22;99844.03;;;8.73;61.84
58471;BME280;44258;51.288;12.068;2023-12-20T12:32:50;99841.69;;;8.83;61.93
58471;BME280;44258;51.288;12.068;2023-12-20T12:35:16;99820.16;;;8.53;61.98
58471;BME280;44258;51.288;12.068;2023-12-20T12:37:44;99829.41;;;8.47;62.20
58471;BME280;44258;51.288;12.068;2023-12-20T12:40:12;99818.59;;;8.33;63.32
58471;BME280;44258;51.288;12.068;2023-12-20T12:42:39;99828.63;;;8.29;63.44
58471;BME280;44258;51.288;12.068;2023-12-20T12:45:08;99839.63;;;8.07;64.17
58471;BME280;44258;51.288;12.068;2023-12-20T12:47:36;99827.41;;;8.02;64.22
58471;BME280;44258;51.288;12.068;2023-12-20T12:50:03;99829.25;;;8.01;64.32
58471;BME280;44258;51.288;12.068;2023-12-20T12:52:30;99815.41;;;7.93;64.93
58471;BME280;44258;51.288;12.068;2023-12-20T12:54:59;99813.38;;;8.14;63.83